Time;durP1;ratioP1;P1;durP2;ratioP2;P2;SDS_P1;SDS_P2;PMS_P1;PMS_P2;Temp;Humidity;BMP_temperature;BMP_pressure;BME280_temperature;BME280_humidity;BME280_pressure;Samples;Min_cycle;Max_cycle;Signal;HPM_P1;HPM_P2
2021/04/16 00:00:47;;;;;;;1.45;0.60;;;2.80;73.60;;;;;;4953015;28;20470;-67
2021/04/16 00:03:13;;;;;;;2.30;0.60;;;2.70;73.70;;;;;;4953319;28;20055;-66
2021/04/16 00:05:40;;;;;;;1.30;0.40;;;2.70;74.00;;;;;;4952698;28;20039;-66
2021/04/16 00:08:09;;;;;;;2.33;0.60;;;2.70;74.00;;;;;;4956339;28;20041;-67
2021/04/16 00:10:38;;;;;;;1.95;0.43;;;2.70;74.80;;;;;;4954219;28;20027;-67
2021/04/16 00:13:05;;;;;;;2.92;0.60;;;2.70;74.20;;;;;;4955217;29;20066;-67
2021/04/16 00:15:34;;;;;;;4.57;0.60;;;2.60;74.40;;;;;;4952300;28;20027;-67
2021/04/16 00:18:01;;;;;;;1.58;0.50;;;2.60;74.50;;;;;;4953847;28;20032;-67
2021/04/16 00:20:28;;;;;;;4.60;0.70;;;2.60;74.60;;;;;;4955942;28;20578;-66
2021/04/16 00:22:55;;;;;;;1.63;0.55;;;2.60;74.80;;;;;;4951379;28;20023;-67
2021/04/16 00:25:23;;;;;;;4.63;0.70;;;2.60;74.90;;;;;;4952595;29;20366;-67
2021/04/16 00:27:48;;;;;;;1.65;0.60;;;2.50;75.00;;;;;;4954958;28;20047;-66
2021/04/16 00:30:15;;;;;;;1.48;0.60;;;2.60;75.10;;;;;;4952483;28;20031;-67
2021/04/16 00:32:41;;;;;;;4.80;1.00;;;2.60;75.10;;;;;;4953423;29;20504;-66
2021/04/16 00:35:08;;;;;;;1.77;0.60;;;2.60;75.10;;;;;;4947919;29;20032;-66
2021/04/16 00:37:34;;;;;;;3.33;0.70;;;2.60;75.30;;;;;;4953102;28;20493;-66
2021/04/16 00:40:00;;;;;;;3.60;0.90;;;2.50;75.40;;;;;;4952234;29;20019;-67
2021/04/16 00:42:26;;;;;;;1.70;0.60;;;2.50;75.60;;;;;;4951000;29;20027;-67
2021/04/16 00:44:51;;;;;;;2.05;0.80;;;2.40;75.60;;;;;;4952589;29;20087;-66
2021/04/16 00:47:20;;;;;;;3.10;1.15;;;2.50;75.70;;;;;;4952743;28;20033;-67
2021/04/16 00:49:51;;;;;;;2.03;0.77;;;2.40;75.80;;;;;;4955940;28;20489;-66
2021/04/16 00:52:28;;;;;;;2.90;0.70;;;2.40;75.90;;;;;;4950360;28;20434;-67
2021/04/16 00:54:54;;;;;;;1.90;0.77;;;2.30;76.00;;;;;;4953338;28;20089;-67
2021/04/16 00:57:21;;;;;;;2.40;0.70;;;2.20;76.10;;;;;;4951219;28;20027;-66
2021/04/16 00:59:49;;;;;;;2.60;0.90;;;2.20;76.30;;;;;;4953889;28;20098;-66
2021/04/16 01:02:15;;;;;;;2.05;0.90;;;2.20;76.60;;;;;;4953373;29;20446;-67
2021/04/16 01:04:40;;;;;;;3.92;0.90;;;2.20;76.80;;;;;;4952150;28;20059;-66
2021/04/16 01:07:09;;;;;;;3.00;0.68;;;2.10;76.90;;;;;;4952389;29;20386;-66
2021/04/16 01:09:35;;;;;;;2.90;0.82;;;2.10;77.00;;;;;;4955123;28;20377;-66
2021/04/16 01:12:07;;;;;;;2.63;0.88;;;2.10;77.10;;;;;;4954017;28;20039;-67
2021/04/16 01:14:35;;;;;;;5.97;0.98;;;2.00;77.20;;;;;;4953706;28;20019;-67
2021/04/16 01:17:01;;;;;;;2.60;0.88;;;2.00;77.40;;;;;;4949615;29;20509;-66
2021/04/16 01:19:41;;;;;;;1.83;0.93;;;2.00;77.60;;;;;;4952681;28;20378;-66
2021/04/16 01:22:17;;;;;;;2.90;0.80;;;1.90;77.90;;;;;;4954759;28;20473;-66
2021/04/16 01:24:44;;;;;;;1.60;0.70;;;1.90;78.00;;;;;;4951448;28;20027;-67
2021/04/16 01:27:12;;;;;;;2.92;0.90;;;1.90;78.80;;;;;;4953362;28;20483;-67
2021/04/16 01:29:44;;;;;;;3.05;0.70;;;1.90;78.20;;;;;;4954074;28;20478;-67
2021/04/16 01:32:19;;;;;;;3.17;1.00;;;1.90;78.40;;;;;;4954091;29;20042;-67
2021/04/16 01:34:45;;;;;;;3.83;0.70;;;1.80;78.60;;;;;;4952002;28;20059;-66
2021/04/16 01:37:10;;;;;;;2.03;0.73;;;1.90;78.70;;;;;;4954484;28;20463;-67
2021/04/16 01:39:36;;;;;;;2.47;0.80;;;1.90;78.80;;;;;;4952381;29;20081;-67
2021/04/16 01:42:02;;;;;;;2.40;0.82;;;1.80;78.90;;;;;;4952760;29;20041;-67
2021/04/16 01:44:29;;;;;;;3.67;0.80;;;1.80;79.10;;;;;;4954382;28;20047;-67
2021/04/16 01:46:58;;;;;;;3.70;0.75;;;1.80;79.20;;;;;;4950966;29;20034;-66
2021/04/16 01:49:33;;;;;;;2.25;0.80;;;1.80;79.30;;;;;;4954204;28;20035;-67
2021/04/16 01:51:59;;;;;;;3.10;1.02;;;1.80;79.50;;;;;;4951710;29;20160;-67
2021/04/16 01:54:35;;;;;;;3.25;0.95;;;1.80;79.60;;;;;;4953676;29;20048;-67
2021/04/16 01:57:07;;;;;;;2.10;0.70;;;1.70;79.80;;;;;;4952622;28;20078;-67
2021/04/16 01:59:36;;;;;;;2.40;0.90;;;1.70;79.90;;;;;;4952642;28;20537;-67
2021/04/16 02:02:06;;;;;;;2.72;0.98;;;1.70;79.90;;;;;;4948709;28;20081;-66
2021/04/16 02:04:32;;;;;;;4.03;0.80;;;1.70;80.20;;;;;;4954409;28;20023;-66
2021/04/16 02:06:58;;;;;;;3.10;0.80;;;1.70;80.10;;;;;;4951783;28;20398;-66
2021/04/16 02:09:28;;;;;;;3.75;1.00;;;1.60;80.30;;;;;;4954040;28;20375;-66
2021/04/16 02:11:54;;;;;;;5.10;1.25;;;1.60;80.50;;;;;;4958492;28;20094;-66
2021/04/16 02:14:27;;;;;;;3.58;1.00;;;1.60;80.70;;;;;;4957329;28;20395;-67
2021/04/16 02:16:57;;;;;;;2.50;0.70;;;1.60;80.80;;;;;;4954151;28;20029;-67
2021/04/16 02:19:23;;;;;;;4.80;1.10;;;1.60;80.80;;;;;;4957482;28;20433;-67
2021/04/16 02:21:49;;;;;;;2.25;0.90;;;1.60;80.90;;;;;;4956576;28;20035;-66
2021/04/16 02:24:15;;;;;;;2.60;0.90;;;1.60;81.10;;;;;;4957950;28;20464;-66
2021/04/16 02:26:41;;;;;;;4.10;0.95;;;1.60;81.20;;;;;;4954491;28;20054;-67
2021/04/16 02:29:08;;;;;;;2.60;0.90;;;1.50;81.30;;;;;;4957026;29;20073;-66
2021/04/16 02:31:34;;;;;;;2.75;1.23;;;1.50;81.40;;;;;;4951017;28;20039;-67
2021/04/16 02:34:00;;;;;;;3.38;1.00;;;1.50;81.60;;;;;;4954039;29;20085;-66
2021/04/16 02:36:25;;;;;;;6.10;1.05;;;1.40;81.70;;;;;;4958363;28;20035;-66
2021/04/16 02:38:55;;;;;;;3.05;0.88;;;1.50;81.90;;;;;;4956972;28;20442;-66
2021/04/16 02:41:21;;;;;;;3.28;1.00;;;1.40;81.90;;;;;;4953795;29;20036;-67
2021/04/16 02:43:48;;;;;;;3.13;1.00;;;1.40;82.00;;;;;;4956399;28;20032;-66
2021/04/16 02:46:14;;;;;;;4.88;1.30;;;1.40;82.20;;;;;;4956249;28;20035;-67
2021/04/16 02:48:39;;;;;;;4.05;1.20;;;1.30;82.40;;;;;;4955758;28;20034;-67
2021/04/16 02:51:05;;;;;;;4.13;1.02;;;1.30;82.40;;;;;;4955523;28;20031;-67
2021/04/16 02:53:30;;;;;;;5.38;1.27;;;1.30;82.50;;;;;;4957604;29;20516;-67
2021/04/16 02:55:56;;;;;;;6.03;0.90;;;1.30;82.60;;;;;;4957193;29;20105;-67
2021/04/16 02:58:21;;;;;;;3.95;1.00;;;1.30;82.60;;;;;;4956128;29;20023;-66
2021/04/16 03:00:47;;;;;;;2.90;1.13;;;1.20;82.70;;;;;;4956345;29;20027;-66
2021/04/16 03:03:12;;;;;;;3.55;1.42;;;1.20;82.90;;;;;;4954413;29;20422;-66
2021/04/16 03:05:38;;;;;;;3.17;1.25;;;1.10;83.00;;;;;;4953891;28;20049;-67
2021/04/16 03:08:04;;;;;;;4.03;1.33;;;1.10;83.20;;;;;;4956936;29;20031;-66
2021/04/16 03:10:33;;;;;;;2.30;0.93;;;1.00;83.30;;;;;;4951739;28;20061;-66
2021/04/16 03:12:59;;;;;;;4.47;1.45;;;1.10;83.60;;;;;;4956102;28;20031;-67
2021/04/16 03:15:24;;;;;;;3.92;1.38;;;1.00;83.50;;;;;;4956038;28;20038;-66
2021/04/16 03:17:50;;;;;;;3.47;1.33;;;1.00;83.70;;;;;;4956779;28;20034;-66
2021/04/16 03:20:18;;;;;;;4.20;1.58;;;1.00;83.80;;;;;;4955702;28;20478;-67
2021/04/16 03:22:44;;;;;;;4.05;1.30;;;1.00;84.00;;;;;;4957306;28;20062;-66
2021/04/16 03:25:10;;;;;;;3.95;1.67;;;0.90;84.00;;;;;;4954271;28;20058;-67
2021/04/16 03:27:37;;;;;;;6.32;1.70;;;0.90;84.30;;;;;;4954297;29;20035;-67
2021/04/16 03:30:09;;;;;;;2.38;1.02;;;0.90;84.40;;;;;;4956288;28;20030;-67
2021/04/16 03:32:34;;;;;;;3.28;1.00;;;0.90;84.60;;;;;;4956740;29;20030;-67
2021/04/16 03:35:00;;;;;;;3.85;1.55;;;0.90;84.70;;;;;;4949189;28;20032;-67
2021/04/16 03:37:25;;;;;;;3.38;1.23;;;0.80;84.70;;;;;;4945914;29;20055;-67
2021/04/16 03:39:52;;;;;;;4.07;1.35;;;0.80;84.90;;;;;;4955562;28;20023;-67
2021/04/16 03:42:17;;;;;;;4.28;1.52;;;0.80;85.10;;;;;;4955709;28;20023;-67
2021/04/16 03:44:43;;;;;;;3.42;1.45;;;0.70;85.20;;;;;;4951264;29;20629;-67
2021/04/16 03:47:09;;;;;;;3.72;1.35;;;0.70;85.40;;;;;;4952567;29;20031;-67
2021/04/16 03:49:34;;;;;;;4.15;2.00;;;0.70;85.60;;;;;;4950819;28;20039;-67
2021/04/16 03:52:02;;;;;;;4.80;1.30;;;0.70;85.60;;;;;;4956020;28;20043;-67
2021/04/16 03:54:28;;;;;;;4.38;1.60;;;0.70;85.80;;;;;;4955566;29;20046;-67
2021/04/16 03:56:54;;;;;;;4.57;1.83;;;0.70;85.90;;;;;;4953805;29;20118;-66
2021/04/16 03:59:22;;;;;;;4.22;1.83;;;0.70;85.90;;;;;;4951374;28;20445;-67
2021/04/16 04:01:48;;;;;;;4.45;1.55;;;0.70;85.90;;;;;;4956552;28;20030;-67
2021/04/16 04:04:14;;;;;;;4.15;1.30;;;0.70;86.00;;;;;;4955102;28;20035;-66
2021/04/16 04:06:39;;;;;;;4.65;1.52;;;0.70;86.20;;;;;;4948303;29;20032;-67
2021/04/16 04:09:05;;;;;;;6.07;2.03;;;0.70;86.30;;;;;;4953606;29;20477;-66
2021/04/16 04:11:32;;;;;;;5.22;1.30;;;0.70;86.50;;;;;;4955505;28;20114;-67
2021/04/16 04:13:59;;;;;;;5.03;1.50;;;0.70;86.60;;;;;;4955596;28;20031;-66
2021/04/16 04:16:25;;;;;;;5.22;1.60;;;0.60;86.60;;;;;;4949656;28;20382;-66
2021/04/16 04:18:51;;;;;;;3.55;1.38;;;0.60;86.70;;;;;;4951631;29;20059;-66
2021/04/16 04:21:16;;;;;;;4.75;1.48;;;0.60;86.80;;;;;;4956077;28;20453;-66
2021/04/16 04:23:42;;;;;;;6.47;2.03;;;0.60;86.80;;;;;;4954482;28;20107;-67
2021/04/16 04:26:07;;;;;;;4.93;1.98;;;0.60;86.90;;;;;;4954825;28;20109;-66
2021/04/16 04:28:33;;;;;;;4.82;2.15;;;0.60;87.10;;;;;;4955018;28;20094;-66
2021/04/16 04:30:58;;;;;;;4.03;1.83;;;0.70;87.20;;;;;;4954548;28;20023;-66
2021/04/16 04:33:24;;;;;;;8.32;2.45;;;0.70;87.30;;;;;;4953716;29;20059;-66
2021/04/16 04:35:50;;;;;;;5.10;1.60;;;0.60;87.50;;;;;;4953083;28;20045;-66
2021/04/16 04:38:16;;;;;;;4.88;2.00;;;0.60;87.40;;;;;;4954874;29;20035;-66
2021/04/16 04:40:42;;;;;;;8.02;1.80;;;0.70;87.60;;;;;;4948385;29;20031;-67
2021/04/16 04:43:08;;;;;;;9.40;2.40;;;0.70;87.70;;;;;;4949531;29;20047;-66
2021/04/16 04:45:33;;;;;;;4.82;1.80;;;0.70;88.00;;;;;;4949587;28;20055;-66
2021/04/16 04:47:59;;;;;;;6.13;2.30;;;0.80;88.00;;;;;;4950347;28;20062;-66
2021/04/16 04:50:25;;;;;;;6.47;1.98;;;0.80;88.00;;;;;;4955289;29;20039;-66
2021/04/16 04:52:53;;;;;;;5.65;2.70;;;0.80;88.10;;;;;;4955744;28;20042;-66
2021/04/16 04:55:23;;;;;;;4.32;1.65;;;0.80;88.20;;;;;;4955345;28;20035;-67
2021/04/16 04:57:48;;;;;;;5.88;2.08;;;0.80;88.20;;;;;;4950697;28;20093;-66
2021/04/16 05:00:15;;;;;;;4.63;1.77;;;0.80;88.40;;;;;;4947850;29;20434;-67
2021/04/16 05:02:40;;;;;;;4.60;1.40;;;0.80;88.50;;;;;;4947257;28;20042;-67
2021/04/16 05:05:07;;;;;;;3.75;1.40;;;0.80;88.40;;;;;;4954628;29;20394;-66
2021/04/16 05:07:33;;;;;;;6.20;2.47;;;0.80;88.40;;;;;;4953895;28;20027;-66
2021/04/16 05:09:58;;;;;;;4.63;2.17;;;0.80;88.50;;;;;;4952273;28;20596;-66
2021/04/16 05:12:24;;;;;;;4.70;1.88;;;0.80;88.70;;;;;;4951515;29;20382;-66
2021/04/16 05:14:49;;;;;;;6.88;2.63;;;0.80;88.70;;;;;;4955370;28;20066;-66
2021/04/16 05:17:15;;;;;;;4.90;1.98;;;0.90;88.80;;;;;;4953133;28;20442;-66
2021/04/16 05:19:40;;;;;;;7.20;2.70;;;0.90;88.90;;;;;;4955457;28;20023;-66
2021/04/16 05:22:07;;;;;;;7.05;2.08;;;0.90;89.00;;;;;;4954299;28;20485;-68
2021/04/16 05:24:34;;;;;;;6.55;2.33;;;0.90;89.10;;;;;;4951144;28;20023;-66
2021/04/16 05:27:07;;;;;;;5.57;2.45;;;1.00;90.00;;;;;;4950157;28;20066;-66
2021/04/16 05:29:33;;;;;;;9.07;2.22;;;1.00;89.30;;;;;;4947196;29;20050;-66
2021/04/16 05:31:59;;;;;;;6.35;2.40;;;1.10;89.40;;;;;;4946924;29;20060;-66
2021/04/16 05:34:25;;;;;;;8.80;3.10;;;1.10;89.40;;;;;;4948258;29;20024;-66
2021/04/16 05:36:51;;;;;;;7.32;3.00;;;1.10;89.50;;;;;;4952770;29;20023;-67
2021/04/16 05:39:18;;;;;;;5.90;3.25;;;1.20;89.70;;;;;;4951208;29;20039;-65
2021/04/16 05:41:44;;;;;;;10.82;2.75;;;1.20;89.60;;;;;;4945726;28;20031;-65
2021/04/16 05:44:10;;;;;;;6.47;3.00;;;1.30;89.60;;;;;;4951931;28;20046;-66
2021/04/16 05:46:37;;;;;;;6.38;2.70;;;1.40;89.60;;;;;;4952402;29;20027;-66
2021/04/16 05:49:03;;;;;;;6.63;2.45;;;1.40;89.50;;;;;;4952871;29;20028;-66
2021/04/16 05:51:29;;;;;;;9.52;2.85;;;1.50;89.70;;;;;;4951643;28;20035;-66
2021/04/16 05:53:55;;;;;;;7.15;2.65;;;1.50;89.80;;;;;;4951932;28;20035;-66
2021/04/16 05:56:21;;;;;;;9.77;2.72;;;1.60;89.90;;;;;;4952133;28;20057;-66
2021/04/16 05:58:46;;;;;;;5.70;2.45;;;1.70;89.90;;;;;;4951852;29;20023;-66
2021/04/16 06:01:12;;;;;;;7.63;2.53;;;1.80;89.80;;;;;;4952696;28;20031;-66
2021/04/16 06:03:39;;;;;;;7.88;3.35;;;1.80;89.70;;;;;;4951642;29;20061;-66
2021/04/16 06:06:05;;;;;;;7.18;2.53;;;1.90;89.70;;;;;;4950204;28;20130;-66
2021/04/16 06:08:30;;;;;;;6.78;2.70;;;1.90;89.80;;;;;;4952349;29;20031;-66
2021/04/16 06:10:56;;;;;;;6.63;3.13;;;2.00;89.90;;;;;;4951034;28;20035;-67
2021/04/16 06:13:23;;;;;;;8.60;2.88;;;2.10;89.90;;;;;;4952026;29;20461;-67
2021/04/16 06:15:49;;;;;;;8.52;2.80;;;2.20;89.90;;;;;;4944787;29;20031;-67
2021/04/16 06:18:14;;;;;;;8.20;3.55;;;2.20;89.80;;;;;;4944293;29;20051;-67
2021/04/16 06:20:40;;;;;;;13.40;3.00;;;2.30;89.50;;;;;;4941751;29;20138;-67
2021/04/16 06:23:06;;;;;;;8.02;3.30;;;2.30;89.30;;;;;;4948464;28;20077;-67
2021/04/16 06:25:34;;;;;;;7.03;2.58;;;2.30;89.40;;;;;;4953094;29;20102;-67
2021/04/16 06:28:04;;;;;;;8.70;3.53;;;2.30;89.50;;;;;;4948886;28;20035;-67
2021/04/16 06:30:30;;;;;;;7.90;2.85;;;2.30;89.60;;;;;;4948754;29;20082;-67
2021/04/16 06:33:24;;;;;;;9.50;3.22;;;2.30;89.80;;;;;;4946633;28;20403;-67
2021/04/16 06:36:01;;;;;;;7.50;3.13;;;2.30;89.90;;;;;;4944346;28;20040;-67
2021/04/16 06:38:35;;;;;;;5.82;2.83;;;2.30;90.00;;;;;;4951550;29;20038;-67
2021/04/16 06:41:03;;;;;;;7.22;3.03;;;2.40;90.10;;;;;;4951820;28;20035;-67
2021/04/16 06:43:44;;;;;;;8.43;3.70;;;2.50;90.20;;;;;;4951576;28;20027;-67
2021/04/16 06:46:26;;;;;;;10.32;3.55;;;2.70;90.30;;;;;;4949659;28;20055;-67
2021/04/16 06:48:51;;;;;;;8.23;2.78;;;2.80;90.00;;;;;;4945812;29;20110;-67
2021/04/16 06:51:21;;;;;;;10.98;3.30;;;3.00;90.00;;;;;;4948797;29;20110;-67
2021/04/16 06:54:00;;;;;;;8.63;3.58;;;3.10;89.80;;;;;;4950687;28;20059;-66
2021/04/16 06:56:39;;;;;;;9.40;4.60;;;3.40;89.70;;;;;;4946545;29;20034;-67
2021/04/16 06:59:15;;;;;;;11.13;3.60;;;3.60;89.60;;;;;;4952831;28;20031;-67
2021/04/16 07:02:04;;;;;;;6.05;3.17;;;3.90;89.40;;;;;;4950288;29;20060;-67
2021/04/16 07:04:44;;;;;;;6.70;3.13;;;4.20;89.20;;;;;;4950548;28;20035;-67
2021/04/16 07:07:28;;;;;;;10.05;3.55;;;4.40;88.60;;;;;;4952560;29;20037;-67
2021/04/16 07:10:17;;;;;;;9.88;3.67;;;4.70;88.10;;;;;;4955332;28;20031;-67
2021/04/16 07:12:44;;;;;;;7.63;2.88;;;5.00;87.70;;;;;;4950511;29;20378;-67
2021/04/16 07:15:25;;;;;;;6.32;3.78;;;5.20;87.30;;;;;;4953922;28;20031;-67
2021/04/16 07:17:52;;;;;;;6.40;3.25;;;5.50;86.30;;;;;;4948769;29;20023;-67
2021/04/16 07:20:21;;;;;;;5.75;3.45;;;5.70;85.60;;;;;;4954001;28;20030;-67
2021/04/16 07:22:53;;;;;;;6.25;3.30;;;5.90;84.70;;;;;;4952624;29;20027;-67
2021/04/16 07:25:39;;;;;;;6.55;2.95;;;6.10;84.30;;;;;;4954759;29;20122;-67
2021/04/16 07:28:06;;;;;;;9.15;3.10;;;6.20;83.60;;;;;;4945970;29;20493;-67
2021/04/16 07:30:41;;;;;;;7.07;3.05;;;6.20;82.40;;;;;;4954317;28;20035;-67
2021/04/16 07:33:32;;;;;;;8.95;4.15;;;6.20;82.00;;;;;;4955595;28;20059;-67
2021/04/16 07:36:25;;;;;;;9.73;2.38;;;6.10;82.20;;;;;;4950362;28;20039;-67
2021/04/16 07:39:01;;;;;;;8.25;3.22;;;6.10;82.30;;;;;;4945279;29;20143;-67
2021/04/16 07:41:30;;;;;;;6.75;2.35;;;6.10;81.90;;;;;;4954361;28;20023;-67
2021/04/16 07:44:00;;;;;;;4.57;2.58;;;6.10;82.00;;;;;;4955702;28;20118;-67
2021/04/16 07:46:26;;;;;;;7.32;3.05;;;6.10;81.30;;;;;;4955979;29;20113;-67
2021/04/16 07:48:54;;;;;;;6.60;3.33;;;6.00;81.30;;;;;;4954351;28;20557;-67
2021/04/16 07:51:31;;;;;;;5.10;2.53;;;6.00;81.20;;;;;;4956136;28;20035;-67
2021/04/16 07:54:11;;;;;;;10.18;3.55;;;6.10;81.50;;;;;;4950584;28;20035;-67
2021/04/16 07:56:37;;;;;;;5.72;2.60;;;6.20;81.10;;;;;;4955250;29;20035;-67
2021/04/16 07:59:10;;;;;;;6.05;3.03;;;6.40;81.20;;;;;;4952079;29;20043;-67
2021/04/16 08:01:43;;;;;;;5.75;3.08;;;6.50;81.00;;;;;;4954259;28;20027;-67
2021/04/16 08:04:30;;;;;;;7.50;2.45;;;6.60;79.50;;;;;;4955697;28;20027;-67
2021/04/16 08:07:16;;;;;;;9.43;3.58;;;6.70;78.90;;;;;;4954313;28;20119;-67
2021/04/16 08:09:42;;;;;;;6.40;2.95;;;6.80;79.00;;;;;;4954084;28;20031;-65
2021/04/16 08:12:07;;;;;;;6.15;2.70;;;7.00;79.10;;;;;;4954212;28;20027;-65
2021/04/16 08:14:34;;;;;;;5.55;2.60;;;7.10;77.60;;;;;;4955746;28;20039;-65
2021/04/16 08:17:28;;;;;;;6.30;2.33;;;7.30;76.80;;;;;;4955007;28;20110;-65
2021/04/16 08:19:54;;;;;;;7.95;3.00;;;7.40;77.20;;;;;;4953133;29;20426;-65
2021/04/16 08:22:31;;;;;;;5.45;2.22;;;7.40;76.90;;;;;;4953647;29;20035;-65
2021/04/16 08:25:11;;;;;;;7.72;2.72;;;7.60;76.80;;;;;;4952837;29;20442;-65
2021/04/16 08:28:05;;;;;;;5.60;2.90;;;7.70;75.60;;;;;;4955913;28;20026;-65
2021/04/16 08:30:51;;;;;;;5.35;2.22;;;7.80;75.30;;;;;;4953112;29;20051;-65
2021/04/16 08:33:29;;;;;;;6.68;2.35;;;8.00;74.50;;;;;;4954530;29;20092;-65
2021/04/16 08:36:17;;;;;;;8.10;2.10;;;8.00;73.60;;;;;;4950136;29;20023;-65
2021/04/16 08:39:09;;;;;;;4.20;1.50;;;8.20;73.30;;;;;;4946659;28;20427;-66
2021/04/16 08:41:59;;;;;;;4.43;1.67;;;8.40;72.80;;;;;;4954893;29;20307;-66
2021/04/16 08:44:27;;;;;;;5.70;1.88;;;8.50;71.10;;;;;;4943543;29;20058;-66
2021/04/16 08:46:55;;;;;;;4.82;2.25;;;8.60;69.30;;;;;;4956013;28;20034;-66
2021/04/16 08:49:22;;;;;;;3.38;1.42;;;8.70;69.60;;;;;;4953030;28;20039;-66
2021/04/16 08:51:54;;;;;;;3.88;1.83;;;8.90;69.30;;;;;;4953341;28;20070;-66
2021/04/16 08:54:32;;;;;;;3.95;1.45;;;9.00;69.10;;;;;;4954325;28;20433;-66
2021/04/16 08:57:06;;;;;;;4.80;1.83;;;9.10;69.30;;;;;;4955171;28;20068;-66
2021/04/16 08:59:46;;;;;;;5.80;2.63;;;9.20;68.90;;;;;;4954137;28;20030;-66
2021/04/16 09:02:21;;;;;;;32.05;4.35;;;9.20;68.90;;;;;;4953943;28;20128;-66
2021/04/16 09:05:17;;;;;;;6.88;1.70;;;9.20;67.20;;;;;;4954653;28;20114;-66
2021/04/16 09:08:06;;;;;;;3.97;1.30;;;9.30;64.80;;;;;;4954646;28;20117;-66
2021/04/16 09:10:31;;;;;;;3.90;1.55;;;9.40;64.30;;;;;;4951362;29;20031;-66
2021/04/16 09:13:06;;;;;;;3.85;1.45;;;9.50;64.00;;;;;;4942935;28;20441;-66
2021/04/16 09:15:34;;;;;;;3.17;1.20;;;9.60;63.20;;;;;;4951609;29;20035;-66
2021/04/16 09:18:00;;;;;;;4.38;1.20;;;9.60;63.00;;;;;;4954478;28;20028;-66
2021/04/16 09:20:47;;;;;;;2.83;1.17;;;9.70;63.00;;;;;;4954349;29;20044;-66
2021/04/16 09:23:27;;;;;;;3.20;0.98;;;9.70;61.10;;;;;;4952226;29;20135;-66
2021/04/16 09:25:54;;;;;;;3.13;0.90;;;9.80;60.60;;;;;;4953887;29;20041;-66
2021/04/16 09:28:22;;;;;;;4.75;1.10;;;9.90;59.90;;;;;;4949615;29;20102;-66
2021/04/16 09:30:48;;;;;;;3.95;1.17;;;10.00;59.50;;;;;;4953166;29;20060;-66
2021/04/16 09:33:19;;;;;;;3.47;0.70;;;10.10;59.60;;;;;;4952797;29;20035;-66
2021/04/16 09:35:58;;;;;;;4.10;0.80;;;10.20;58.10;;;;;;4950495;29;20039;-66
2021/04/16 09:38:23;;;;;;;4.65;1.00;;;10.30;57.10;;;;;;4952665;29;20035;-66
2021/04/16 09:41:27;;;;;;;4.07;0.80;;;10.40;57.10;;;;;;4954558;28;20030;-66
2021/04/16 09:43:56;;;;;;;2.58;0.98;;;10.60;56.10;;;;;;4953493;29;20031;-66
2021/04/16 09:46:45;;;;;;;4.03;1.00;;;10.70;55.50;;;;;;4952472;29;20039;-66
2021/04/16 09:49:24;;;;;;;4.07;0.60;;;10.80;54.80;;;;;;4953298;29;20394;-66
2021/04/16 09:51:55;;;;;;;3.63;0.52;;;10.90;54.90;;;;;;4940699;28;20027;-66
2021/04/16 09:54:21;;;;;;;2.40;0.47;;;11.00;52.00;;;;;;4940627;29;20098;-66
2021/04/16 09:57:01;;;;;;;1.60;0.60;;;11.00;50.70;;;;;;4950678;29;20035;-66
2021/04/16 09:59:44;;;;;;;3.85;0.60;;;11.10;50.90;;;;;;4946665;29;20106;-66
2021/04/16 10:02:12;;;;;;;3.20;0.63;;;11.10;50.70;;;;;;4949170;29;20031;-66
2021/04/16 10:05:06;;;;;;;6.50;0.50;;;11.20;49.20;;;;;;4951084;28;20098;-66
2021/04/16 10:07:49;;;;;;;2.10;0.50;;;11.30;49.90;;;;;;4944452;29;20130;-66
2021/04/16 10:10:29;;;;;;;;;;;11.20;46.80;;;;;;4950395;29;20413;-66
2021/04/16 10:13:19;;;;;;;2.78;0.50;;;11.10;46.60;;;;;;4938783;28;20005;-65
2021/04/16 10:15:47;;;;;;;1.90;0.50;;;11.00;46.40;;;;;;4953008;28;20035;-66
2021/04/16 10:18:38;;;;;;;2.53;0.50;;;11.00;47.40;;;;;;4945124;29;20489;-67
2021/04/16 10:21:16;;;;;;;1.65;0.40;;;11.10;47.70;;;;;;4954213;28;20490;-66
2021/04/16 10:24:03;;;;;;;2.65;0.40;;;11.10;47.90;;;;;;4951120;28;20447;-66
2021/04/16 10:32:56;;;;;;;1.42;0.50;;;11.50;46.30;;;;;;4953250;28;20060;-66
2021/04/16 10:42:04;;;;;;;1.20;0.40;;;11.40;45.50;;;;;;4950733;29;20029;-65
2021/04/16 12:41:07;;;;;;;1.55;0.50;;;13.00;41.80;;;;;;4945951;29;20023;-65
2021/04/16 12:43:35;;;;;;;2.58;0.50;;;13.20;42.10;;;;;;4943045;28;20075;-65
2021/04/16 12:46:02;;;;;;;2.22;0.50;;;13.10;40.20;;;;;;4945812;28;20414;-65
2021/04/16 12:48:27;;;;;;;2.85;0.60;;;13.00;40.30;;;;;;4947214;28;20023;-65
2021/04/16 12:50:53;;;;;;;1.48;0.60;;;13.00;41.00;;;;;;4945166;29;20039;-65
2021/04/16 12:53:19;;;;;;;1.33;0.50;;;13.20;41.60;;;;;;4951427;28;20047;-65
2021/04/16 12:55:45;;;;;;;3.05;0.50;;;13.30;41.50;;;;;;4952871;28;20031;-66
2021/04/16 12:58:29;;;;;;;1.00;0.40;;;13.40;40.10;;;;;;4953350;29;20039;-66
2021/04/16 13:00:55;;;;;;;1.45;0.40;;;13.40;39.50;;;;;;4950367;29;20541;-66
2021/04/16 13:03:30;;;;;;;1.27;0.40;;;13.50;38.10;;;;;;4950455;28;20062;-66
2021/04/16 13:05:57;;;;;;;2.45;0.45;;;13.60;37.80;;;;;;4947115;29;20038;-65
2021/04/16 13:08:23;;;;;;;1.55;0.40;;;13.50;37.50;;;;;;4949648;28;20039;-66
2021/04/16 13:10:48;;;;;;;1.38;0.60;;;13.60;37.90;;;;;;4953500;29;20077;-65
2021/04/16 13:13:14;;;;;;;1.77;0.40;;;13.60;37.40;;;;;;4951084;29;20397;-66
2021/04/16 13:15:40;;;;;;;2.42;0.30;;;13.60;38.10;;;;;;4952005;29;20478;-67
2021/04/16 13:18:27;;;;;;;2.97;0.65;;;13.70;38.70;;;;;;4950641;29;20038;-67
2021/04/16 13:20:53;;;;;;;1.30;0.50;;;13.80;38.40;;;;;;4951192;29;20024;-66
2021/04/16 13:23:19;;;;;;;1.27;0.40;;;13.90;38.60;;;;;;4953763;29;20359;-67
2021/04/16 13:25:45;;;;;;;2.00;0.38;;;14.00;38.10;;;;;;4949873;29;20028;-66
2021/04/16 13:28:11;;;;;;;0.90;0.30;;;14.00;37.80;;;;;;4946559;29;20034;-67
2021/04/16 13:30:36;;;;;;;1.80;0.40;;;14.10;37.60;;;;;;4951310;29;20043;-67
2021/04/16 13:33:08;;;;;;;1.80;0.50;;;14.10;37.50;;;;;;4950570;28;20035;-66
2021/04/16 13:35:54;;;;;;;11.93;0.57;;;14.20;37.30;;;;;;4943977;28;20079;-67
2021/04/16 13:38:27;;;;;;;1.83;0.65;;;14.30;36.60;;;;;;4953292;29;20674;-66
2021/04/16 13:40:53;;;;;;;1.35;0.40;;;14.30;36.70;;;;;;4951631;28;20023;-66
2021/04/16 13:43:20;;;;;;;3.60;0.40;;;14.40;36.40;;;;;;4949801;28;20433;-67
2021/04/16 13:45:45;;;;;;;2.47;0.40;;;14.40;36.60;;;;;;4952465;28;20091;-66
2021/04/16 13:48:12;;;;;;;1.85;0.40;;;14.50;37.00;;;;;;4948952;28;20055;-67
2021/04/16 13:50:38;;;;;;;1.80;0.43;;;14.60;36.90;;;;;;4948289;29;20042;-67
2021/04/16 13:53:04;;;;;;;1.20;0.50;;;14.60;36.20;;;;;;4947663;29;20035;-66
2021/04/16 13:55:30;;;;;;;1.67;0.50;;;14.60;36.10;;;;;;4946573;29;20058;-66
2021/04/16 13:57:56;;;;;;;3.40;0.68;;;14.50;36.50;;;;;;4952144;28;20038;-67
2021/04/16 14:00:24;;;;;;;1.80;0.50;;;14.50;36.80;;;;;;4953318;29;20019;-66
2021/04/16 14:02:54;;;;;;;1.65;0.47;;;14.60;36.50;;;;;;4949454;28;20371;-66
2021/04/16 14:05:23;;;;;;;1.40;0.47;;;14.60;36.50;;;;;;4950624;28;20019;-67
2021/04/16 14:07:50;;;;;;;1.75;0.50;;;14.60;36.90;;;;;;4948837;28;20047;-64
2021/04/16 14:10:19;;;;;;;1.40;0.30;;;14.80;37.40;;;;;;4945581;29;20083;-67
2021/04/16 14:12:44;;;;;;;1.63;0.50;;;14.90;36.40;;;;;;4945477;29;20031;-65
2021/04/16 14:15:11;;;;;;;3.35;0.50;;;14.90;35.80;;;;;;4944710;28;20042;-66
2021/04/16 14:17:43;;;;;;;4.13;0.40;;;14.80;35.70;;;;;;4946677;29;20027;-66
2021/04/16 14:20:18;;;;;;;1.42;0.50;;;14.60;35.50;;;;;;4951524;28;20027;-66
2021/04/16 14:22:47;;;;;;;1.70;0.60;;;14.50;35.80;;;;;;4961909;28;20035;-66
2021/04/16 14:25:17;;;;;;;1.55;0.40;;;14.40;36.40;;;;;;4942563;29;20439;-66
2021/04/16 14:27:44;;;;;;;2.00;0.50;;;14.50;36.60;;;;;;4945697;29;20027;-66
2021/04/16 14:30:32;;;;;;;1.88;0.50;;;14.50;36.80;;;;;;4944013;29;20024;-66
2021/04/16 14:33:00;;;;;;;0.90;0.40;;;14.60;37.10;;;;;;4948003;29;20074;-66
2021/04/16 14:35:28;;;;;;;2.25;0.52;;;14.70;35.80;;;;;;4948381;29;20031;-66
2021/04/16 14:37:54;;;;;;;1.65;0.45;;;14.70;36.00;;;;;;4953808;28;20039;-66
2021/04/16 14:40:21;;;;;;;2.33;0.63;;;14.70;35.50;;;;;;4949796;28;20027;-66
2021/04/16 14:42:47;;;;;;;2.28;0.40;;;14.60;35.70;;;;;;4948771;29;20051;-66
2021/04/16 14:45:20;;;;;;;2.00;0.60;;;14.50;35.60;;;;;;4951115;29;20090;-65
2021/04/16 14:47:45;;;;;;;1.85;0.50;;;14.50;36.00;;;;;;4951004;28;20038;-66
2021/04/16 14:50:13;;;;;;;1.38;0.45;;;14.60;36.40;;;;;;4951089;29;20027;-66
2021/04/16 14:52:39;;;;;;;1.00;0.47;;;14.70;36.50;;;;;;4949466;29;20474;-66
2021/04/16 14:55:10;;;;;;;1.30;0.50;;;15.00;36.90;;;;;;4946904;28;20433;-66
2021/04/16 14:57:39;;;;;;;1.75;0.50;;;15.10;36.50;;;;;;4950326;29;20462;-66
2021/04/16 15:00:16;;;;;;;1.45;0.40;;;15.10;35.60;;;;;;4945169;29;20031;-66
2021/04/16 15:02:42;;;;;;;2.35;0.40;;;15.20;35.50;;;;;;4945600;29;20019;-66
2021/04/16 15:05:09;;;;;;;0.98;0.30;;;15.10;35.00;;;;;;4948135;29;20074;-66
2021/04/16 15:07:47;;;;;;;1.77;0.43;;;15.10;35.30;;;;;;4950501;28;20023;-66
2021/04/16 15:10:17;;;;;;;1.58;0.60;;;15.20;35.70;;;;;;4935563;29;20038;-66
2021/04/16 15:12:44;;;;;;;2.55;0.50;;;15.40;35.80;;;;;;4950470;28;20058;-66
2021/04/16 15:15:33;;;;;;;1.90;0.50;;;15.30;35.30;;;;;;4953521;28;20347;-66
2021/04/16 15:17:59;;;;;;;1.65;0.50;;;15.20;35.50;;;;;;4949217;29;20031;-66
2021/04/16 15:20:31;;;;;;;1.80;0.55;;;15.10;35.90;;;;;;4955230;29;20498;-66